sensor_id;sensor_type;location;lat;lon;timestamp;pressure;altitude;pressure_sealevel;temperature;humidity
2397;BME280;1209;48.410;9.054;2023-05-10T00:01:00;95648.16;;;13.74;100.00
2397;BME280;1209;48.410;9.054;2023-05-10T00:03:26;95647.94;;;13.75;100.00
2397;BME280;1209;48.410;9.054;2023-05-10T00:05:51;95647.34;;;13.73;100.00
2397;BME280;1209;48.410;9.054;2023-05-10T00:08:16;95653.56;;;13.79;100.00
2397;BME280;1209;48.410;9.054;2023-05-10T00:10:41;95652.94;;;13.83;100.00
2397;BME280;1209;48.410;9.054;2023-05-10T00:13:07;95653.75;;;13.84;100.00
2397;BME280;1209;48.410;9.054;2023-05-10T00:15:32;95650.19;;;13.72;100.00
2397;BME280;1209;48.410;9.054;2023-05-10T00:17:57;95651.56;;;13.74;100.00
2397;BME280;1209;48.410;9.054;2023-05-10T00:20:23;95655.00;;;13.68;100.00
2397;BME280;1209;48.410;9.054;2023-05-10T00:22:48;95659.47;;;13.61;100.00
2397;BME280;1209;48.410;9.054;2023-05-10T00:25:13;95645.72;;;13.66;100.00
2397;BME280;1209;48.410;9.054;2023-05-10T00:27:39;95657.84;;;13.67;100.00
2397;BME280;1209;48.410;9.054;2023-05-10T00:30:04;95664.13;;;13.59;100.00
2397;BME280;1209;48.410;9.054;2023-05-10T00:32:30;95662.47;;;13.71;100.00
2397;BME280;1209;48.410;9.054;2023-05-10T00:34:55;95657.66;;;13.62;100.00
2397;BME280;1209;48.410;9.054;2023-05-10T00:37:21;95663.78;;;13.49;100.00
2397;BME280;1209;48.410;9.054;2023-05-10T00:39:46;95662.34;;;13.53;100.00
2397;BME280;1209;48.410;9.054;2023-05-10T00:42:11;95667.41;;;13.48;100.00
2397;BME280;1209;48.410;9.054;2023-05-10T00:44:36;95671.66;;;13.42;100.00
2397;BME280;1209;48.410;9.054;2023-05-10T00:47:02;95677.69;;;13.49;100.00
2397;BME280;1209;48.410;9.054;2023-05-10T00:49:28;95687.59;;;13.47;100.00
2397;BME280;1209;48.410;9.054;2023-05-10T00:51:53;95686.59;;;13.42;100.00
2397;BME280;1209;48.410;9.054;2023-05-10T00:54:19;95687.44;;;13.29;100.00
2397;BME280;1209;48.410;9.054;2023-05-10T00:56:45;95687.06;;;13.26;100.00
2397;BME280;1209;48.410;9.054;2023-05-10T00:59:15;95689.06;;;13.17;100.00
2397;BME280;1209;48.410;9.054;2023-05-10T01:01:41;95696.31;;;13.08;100.00
2397;BME280;1209;48.410;9.054;2023-05-10T01:04:06;95694.47;;;13.15;100.00
2397;BME280;1209;48.410;9.054;2023-05-10T01:06:32;95695.50;;;13.21;100.00
2397;BME280;1209;48.410;9.054;2023-05-10T01:08:57;95689.25;;;13.29;100.00
2397;BME280;1209;48.410;9.054;2023-05-10T01:11:22;95696.72;;;13.32;100.00
2397;BME280;1209;48.410;9.054;2023-05-10T01:13:53;95695.28;;;13.36;100.00
2397;BME280;1209;48.410;9.054;2023-05-10T01:16:20;95699.13;;;13.33;100.00
2397;BME280;1209;48.410;9.054;2023-05-10T01:18:45;95697.53;;;13.26;100.00
2397;BME280;1209;48.410;9.054;2023-05-10T01:21:39;95701.38;;;13.30;100.00
2397;BME280;1209;48.410;9.054;2023-05-10T01:24:09;95699.53;;;13.37;100.00
2397;BME280;1209;48.410;9.054;2023-05-10T01:32:44;95705.19;;;13.27;100.00
2397;BME280;1209;48.410;9.054;2023-05-10T01:35:29;95706.41;;;13.18;100.00
2397;BME280;1209;48.410;9.054;2023-05-10T01:38:18;95725.75;;;13.23;100.00
2397;BME280;1209;48.410;9.054;2023-05-10T01:43:37;95715.28;;;12.97;100.00
2397;BME280;1209;48.410;9.054;2023-05-10T01:46:16;95722.13;;;12.98;100.00
2397;BME280;1209;48.410;9.054;2023-05-10T01:48:52;95722.53;;;12.95;100.00
2397;BME280;1209;48.410;9.054;2023-05-10T01:51:23;95720.94;;;12.94;100.00
2397;BME280;1209;48.410;9.054;2023-05-10T01:53:54;95715.50;;;12.89;100.00
2397;BME280;1209;48.410;9.054;2023-05-10T01:56:24;95723.56;;;12.81;100.00
2397;BME280;1209;48.410;9.054;2023-05-10T01:58:52;95728.78;;;12.94;100.00
2397;BME280;1209;48.410;9.054;2023-05-10T02:01:20;95734.63;;;12.96;100.00
2397;BME280;1209;48.410;9.054;2023-05-10T02:03:47;95733.00;;;13.02;100.00
2397;BME280;1209;48.410;9.054;2023-05-10T02:06:16;95733.00;;;13.02;100.00
2397;BME280;1209;48.410;9.054;2023-05-10T02:08:45;95740.69;;;13.03;100.00
2397;BME280;1209;48.410;9.054;2023-05-10T02:11:13;95739.06;;;13.02;100.00
2397;BME280;1209;48.410;9.054;2023-05-10T02:13:39;95742.28;;;12.98;100.00
2397;BME280;1209;48.410;9.054;2023-05-10T02:16:06;95743.69;;;13.00;100.00
2397;BME280;1209;48.410;9.054;2023-05-10T02:18:33;95740.28;;;13.00;100.00
2397;BME280;1209;48.410;9.054;2023-05-10T02:21:00;95741.91;;;12.94;100.00
2397;BME280;1209;48.410;9.054;2023-05-10T02:23:28;95741.28;;;12.99;100.00
2397;BME280;1209;48.410;9.054;2023-05-10T02:25:54;95742.69;;;12.95;100.00
2397;BME280;1209;48.410;9.054;2023-05-10T02:28:23;95746.34;;;12.87;100.00
2397;BME280;1209;48.410;9.054;2023-05-10T02:30:48;95747.34;;;12.79;100.00
2397;BME280;1209;48.410;9.054;2023-05-10T02:33:15;95754.19;;;12.80;100.00
2397;BME280;1209;48.410;9.054;2023-05-10T02:35:41;95755.19;;;12.79;100.00
2397;BME280;1209;48.410;9.054;2023-05-10T02:38:07;95745.13;;;12.83;100.00
2397;BME280;1209;48.410;9.054;2023-05-10T02:40:35;95751.78;;;12.85;100.00
2397;BME280;1209;48.410;9.054;2023-05-10T02:43:02;95755.81;;;12.88;100.00
2397;BME280;1209;48.410;9.054;2023-05-10T02:45:30;95753.59;;;12.85;100.00
2397;BME280;1209;48.410;9.054;2023-05-10T02:47:56;95748.53;;;12.77;100.00
2397;BME280;1209;48.410;9.054;2023-05-10T02:50:22;95752.19;;;12.82;100.00
2397;BME280;1209;48.410;9.054;2023-05-10T02:52:51;95753.19;;;12.88;100.00
2397;BME280;1209;48.410;9.054;2023-05-10T02:55:21;95744.13;;;12.90;100.00
2397;BME280;1209;48.410;9.054;2023-05-10T02:57:59;95750.97;;;12.85;100.00
2397;BME280;1209;48.410;9.054;2023-05-10T03:00:25;95745.31;;;12.81;100.00
2397;BME280;1209;48.410;9.054;2023-05-10T03:02:51;95746.09;;;12.75;100.00
2397;BME280;1209;48.410;9.054;2023-05-10T03:05:17;95742.88;;;12.73;100.00
2397;BME280;1209;48.410;9.054;2023-05-10T03:07:42;95744.88;;;12.71;100.00
2397;BME280;1209;48.410;9.054;2023-05-10T03:10:08;95748.53;;;12.70;100.00
2397;BME280;1209;48.410;9.054;2023-05-10T03:18:22;95755.75;;;12.42;100.00
2397;BME280;1209;48.410;9.054;2023-05-10T03:20:50;95751.50;;;12.41;100.00
2397;BME280;1209;48.410;9.054;2023-05-10T03:25:43;95759.78;;;12.44;100.00
2397;BME280;1209;48.410;9.054;2023-05-10T03:28:09;95769.63;;;12.42;100.00
2397;BME280;1209;48.410;9.054;2023-05-10T03:30:35;95765.63;;;12.46;100.00
2397;BME280;1209;48.410;9.054;2023-05-10T03:33:05;95772.06;;;12.44;100.00
2397;BME280;1209;48.410;9.054;2023-05-10T03:35:31;95775.47;;;12.44;100.00
2397;BME280;1209;48.410;9.054;2023-05-10T03:37:56;95773.28;;;12.48;100.00
2397;BME280;1209;48.410;9.054;2023-05-10T03:40:22;95762.41;;;12.51;100.00
2397;BME280;1209;48.410;9.054;2023-05-10T03:42:48;95762.19;;;12.52;100.00
2397;BME280;1209;48.410;9.054;2023-05-10T03:45:14;95763.00;;;12.46;100.00
2397;BME280;1209;48.410;9.054;2023-05-10T03:47:40;95757.56;;;12.48;100.00
2397;BME280;1209;48.410;9.054;2023-05-10T03:50:06;95767.63;;;12.51;100.00
2397;BME280;1209;48.410;9.054;2023-05-10T03:52:32;95761.59;;;12.50;100.00
2397;BME280;1209;48.410;9.054;2023-05-10T03:54:57;95769.44;;;12.50;100.00
2397;BME280;1209;48.410;9.054;2023-05-10T03:57:22;95767.22;;;12.41;100.00
2397;BME280;1209;48.410;9.054;2023-05-10T03:59:47;95761.41;;;12.52;100.00
2397;BME280;1209;48.410;9.054;2023-05-10T04:02:13;95767.84;;;12.56;100.00
2397;BME280;1209;48.410;9.054;2023-05-10T04:04:38;95765.22;;;12.43;100.00
2397;BME280;1209;48.410;9.054;2023-05-10T04:07:03;95765.19;;;12.36;100.00
2397;BME280;1209;48.410;9.054;2023-05-10T04:09:29;95764.41;;;12.49;100.00
2397;BME280;1209;48.410;9.054;2023-05-10T04:11:54;95771.28;;;12.56;100.00
2397;BME280;1209;48.410;9.054;2023-05-10T04:14:19;95766.66;;;12.58;100.00
2397;BME280;1209;48.410;9.054;2023-05-10T04:16:45;95774.91;;;12.62;100.00
2397;BME280;1209;48.410;9.054;2023-05-10T04:19:10;95773.69;;;12.58;100.00
2397;BME280;1209;48.410;9.054;2023-05-10T04:21:36;95776.50;;;12.56;100.00
2397;BME280;1209;48.410;9.054;2023-05-10T04:24:01;95780.13;;;12.49;100.00
2397;BME280;1209;48.410;9.054;2023-05-10T04:26:26;95781.97;;;12.61;100.00
2397;BME280;1209;48.410;9.054;2023-05-10T04:28:51;95778.94;;;12.65;100.00
2397;BME280;1209;48.410;9.054;2023-05-10T04:31:17;95787.00;;;12.70;100.00
2397;BME280;1209;48.410;9.054;2023-05-10T04:33:42;95787.22;;;12.75;100.00
2397;BME280;1209;48.410;9.054;2023-05-10T04:36:08;95782.97;;;12.74;100.00
2397;BME280;1209;48.410;9.054;2023-05-10T04:38:33;95791.84;;;12.66;100.00
2397;BME280;1209;48.410;9.054;2023-05-10T04:41:06;95790.84;;;12.67;100.00
2397;BME280;1209;48.410;9.054;2023-05-10T04:43:31;95787.81;;;12.70;100.00
2397;BME280;1209;48.410;9.054;2023-05-10T04:45:57;95794.66;;;12.65;100.00
2397;BME280;1209;48.410;9.054;2023-05-10T04:48:22;95791.03;;;12.72;100.00
2397;BME280;1209;48.410;9.054;2023-05-10T04:50:47;95791.25;;;12.71;100.00
2397;BME280;1209;48.410;9.054;2023-05-10T04:53:12;95796.47;;;12.71;100.00
2397;BME280;1209;48.410;9.054;2023-05-10T04:55:38;95791.84;;;12.66;100.00
2397;BME280;1209;48.410;9.054;2023-05-10T04:58:03;95795.25;;;12.67;100.00
2397;BME280;1209;48.410;9.054;2023-05-10T05:00:28;95803.53;;;12.70;100.00
2397;BME280;1209;48.410;9.054;2023-05-10T05:02:53;95806.75;;;12.72;100.00
2397;BME280;1209;48.410;9.054;2023-05-10T05:05:19;95808.16;;;12.68;100.00
2397;BME280;1209;48.410;9.054;2023-05-10T05:07:44;95805.94;;;12.72;100.00
2397;BME280;1209;48.410;9.054;2023-05-10T05:10:09;95800.91;;;12.77;100.00
2397;BME280;1209;48.410;9.054;2023-05-10T05:12:35;95804.38;;;12.77;100.00
2397;BME280;1209;48.410;9.054;2023-05-10T05:15:01;95811.41;;;12.77;100.00
2397;BME280;1209;48.410;9.054;2023-05-10T05:17:26;95810.78;;;12.75;100.00
2397;BME280;1209;48.410;9.054;2023-05-10T05:19:52;95814.22;;;12.69;100.00
2397;BME280;1209;48.410;9.054;2023-05-10T05:22:17;95816.44;;;12.65;100.00
2397;BME280;1209;48.410;9.054;2023-05-10T05:24:44;95817.66;;;12.76;100.00
2397;BME280;1209;48.410;9.054;2023-05-10T05:27:10;95816.84;;;12.75;100.00
2397;BME280;1209;48.410;9.054;2023-05-10T05:29:35;95820.88;;;12.71;100.00
2397;BME280;1209;48.410;9.054;2023-05-10T05:32:00;95823.69;;;12.76;100.00
2397;BME280;1209;48.410;9.054;2023-05-10T05:34:26;95818.50;;;12.83;100.00
2397;BME280;1209;48.410;9.054;2023-05-10T05:36:51;95833.00;;;12.85;100.00
2397;BME280;1209;48.410;9.054;2023-05-10T05:39:16;95838.25;;;12.79;100.00
2397;BME280;1209;48.410;9.054;2023-05-10T05:41:42;95832.81;;;12.80;100.00
2397;BME280;1209;48.410;9.054;2023-05-10T05:44:07;95841.88;;;12.84;100.00
2397;BME280;1209;48.410;9.054;2023-05-10T05:46:33;95841.66;;;12.79;100.00
2397;BME280;1209;48.410;9.054;2023-05-10T05:48:58;95839.81;;;12.73;100.00
2397;BME280;1209;48.410;9.054;2023-05-10T05:51:23;95842.84;;;12.70;100.00
2397;BME280;1209;48.410;9.054;2023-05-10T05:53:48;95842.84;;;12.77;100.00
2397;BME280;1209;48.410;9.054;2023-05-10T05:56:14;95839.88;;;12.93;100.00
2397;BME280;1209;48.410;9.054;2023-05-10T05:58:39;95844.50;;;12.84;100.00
2397;BME280;1209;48.410;9.054;2023-05-10T06:01:04;95842.47;;;12.80;100.00
2397;BME280;1209;48.410;9.054;2023-05-10T06:03:30;95846.53;;;13.02;100.00
2397;BME280;1209;48.410;9.054;2023-05-10T06:05:55;95844.09;;;12.94;100.00
2397;BME280;1209;48.410;9.054;2023-05-10T06:08:20;95849.97;;;12.96;100.00
2397;BME280;1209;48.410;9.054;2023-05-10T06:10:46;95846.72;;;12.94;100.00
2397;BME280;1209;48.410;9.054;2023-05-10T06:13:11;95846.94;;;13.06;100.00
2397;BME280;1209;48.410;9.054;2023-05-10T06:15:37;95849.97;;;13.16;100.00
2397;BME280;1209;48.410;9.054;2023-05-10T06:18:02;95857.25;;;13.20;100.00
2397;BME280;1209;48.410;9.054;2023-05-10T06:20:28;95855.63;;;13.13;100.00
2397;BME280;1209;48.410;9.054;2023-05-10T06:22:53;95852.03;;;13.20;100.00
2397;BME280;1209;48.410;9.054;2023-05-10T06:25:18;95858.50;;;13.25;100.00
2397;BME280;1209;48.410;9.054;2023-05-10T06:27:44;95867.19;;;13.32;100.00
2397;BME280;1209;48.410;9.054;2023-05-10T06:30:09;95869.41;;;13.28;100.00
2397;BME280;1209;48.410;9.054;2023-05-10T06:32:35;95871.22;;;13.34;100.00
2397;BME280;1209;48.410;9.054;2023-05-10T06:35:01;95871.41;;;13.33;100.00
2397;BME280;1209;48.410;9.054;2023-05-10T06:37:26;95877.66;;;13.32;100.00
2397;BME280;1209;48.410;9.054;2023-05-10T06:39:51;95870.97;;;13.22;100.00
2397;BME280;1209;48.410;9.054;2023-05-10T06:42:17;95873.44;;;13.31;100.00
2397;BME280;1209;48.410;9.054;2023-05-10T06:44:42;95878.28;;;13.34;100.00
2397;BME280;1209;48.410;9.054;2023-05-10T06:47:08;95876.47;;;13.41;100.00
2397;BME280;1209;48.410;9.054;2023-05-10T06:49:33;95885.75;;;13.30;100.00
2397;BME280;1209;48.410;9.054;2023-05-10T06:51:59;95883.31;;;13.35;100.00
2397;BME280;1209;48.410;9.054;2023-05-10T06:54:24;95882.72;;;13.27;100.00
2397;BME280;1209;48.410;9.054;2023-05-10T06:56:49;95874.44;;;13.36;100.00
2397;BME280;1209;48.410;9.054;2023-05-10T06:59:15;95884.72;;;13.31;100.00
2397;BME280;1209;48.410;9.054;2023-05-10T07:01:41;95887.75;;;13.35;100.00
2397;BME280;1209;48.410;9.054;2023-05-10T07:04:06;95889.78;;;13.39;100.00
2397;BME280;1209;48.410;9.054;2023-05-10T07:06:32;95893.59;;;13.37;100.00
2397;BME280;1209;48.410;9.054;2023-05-10T07:08:58;95893.19;;;13.27;100.00
2397;BME280;1209;48.410;9.054;2023-05-10T07:11:24;95884.94;;;13.36;100.00
2397;BME280;1209;48.410;9.054;2023-05-10T07:13:49;95887.75;;;13.41;100.00
2397;BME280;1209;48.410;9.054;2023-05-10T07:16:14;95893.81;;;13.42;100.00
2397;BME280;1209;48.410;9.054;2023-05-10T07:18:40;95886.53;;;13.50;100.00
2397;BME280;1209;48.410;9.054;2023-05-10T07:21:05;95903.28;;;13.56;100.00
2397;BME280;1209;48.410;9.054;2023-05-10T07:23:30;95893.00;;;13.41;100.00
2397;BME280;1209;48.410;9.054;2023-05-10T07:25:56;95902.88;;;13.33;100.00
2397;BME280;1209;48.410;9.054;2023-05-10T07:28:22;95891.59;;;13.39;100.00
2397;BME280;1209;48.410;9.054;2023-05-10T07:30:48;95890.59;;;13.40;100.00
2397;BME280;1209;48.410;9.054;2023-05-10T07:33:14;95896.84;;;13.45;100.00
2397;BME280;1209;48.410;9.054;2023-05-10T07:35:39;95897.25;;;13.36;100.00
2397;BME280;1209;48.410;9.054;2023-05-10T07:38:05;95897.66;;;13.46;100.00
2397;BME280;1209;48.410;9.054;2023-05-10T07:40:30;95898.44;;;13.53;100.00
2397;BME280;1209;48.410;9.054;2023-05-10T07:42:56;95904.09;;;13.37;100.00
2397;BME280;1209;48.410;9.054;2023-05-10T07:45:21;95887.56;;;13.30;100.00
2397;BME280;1209;48.410;9.054;2023-05-10T07:47:47;95896.63;;;13.34;100.00
2397;BME280;1209;48.410;9.054;2023-05-10T07:50:12;95898.25;;;13.41;100.00
2397;BME280;1209;48.410;9.054;2023-05-10T07:52:37;95894.22;;;13.45;100.00
2397;BME280;1209;48.410;9.054;2023-05-10T07:55:03;95899.88;;;13.49;100.00
2397;BME280;1209;48.410;9.054;2023-05-10T07:57:28;95904.09;;;13.43;100.00
2397;BME280;1209;48.410;9.054;2023-05-10T07:59:53;95905.13;;;13.49;100.00
2397;BME280;1209;48.410;9.054;2023-05-10T08:02:19;95905.31;;;13.47;100.00
2397;BME280;1209;48.410;9.054;2023-05-10T08:04:44;95908.75;;;13.48;100.00
2397;BME280;1209;48.410;9.054;2023-05-10T08:07:10;95910.56;;;13.67;100.00
2397;BME280;1209;48.410;9.054;2023-05-10T08:09:35;95902.47;;;13.69;100.00
2397;BME280;1209;48.410;9.054;2023-05-10T08:12:01;95907.53;;;13.83;100.00
2397;BME280;1209;48.410;9.054;2023-05-10T08:14:28;95906.69;;;14.03;100.00
2397;BME280;1209;48.410;9.054;2023-05-10T08:16:54;95903.88;;;14.04;100.00
2397;BME280;1209;48.410;9.054;2023-05-10T08:19:19;95902.25;;;14.03;100.00
2397;BME280;1209;48.410;9.054;2023-05-10T08:21:46;95902.63;;;14.20;100.00
2397;BME280;1209;48.410;9.054;2023-05-10T08:24:11;95904.84;;;14.30;100.00
2397;BME280;1209;48.410;9.054;2023-05-10T08:26:37;95908.28;;;14.30;100.00
2397;BME280;1209;48.410;9.054;2023-05-10T08:29:02;95904.41;;;14.46;100.00
2397;BME280;1209;48.410;9.054;2023-05-10T08:31:28;95912.88;;;14.48;100.00
2397;BME280;1209;48.410;9.054;2023-05-10T08:33:53;95901.31;;;14.62;100.00
2397;BME280;1209;48.410;9.054;2023-05-10T08:36:18;95906.13;;;14.72;100.00
2397;BME280;1209;48.410;9.054;2023-05-10T08:38:50;95906.56;;;14.69;100.00
2397;BME280;1209;48.410;9.054;2023-05-10T08:41:15;95910.41;;;14.60;100.00
2397;BME280;1209;48.410;9.054;2023-05-10T08:43:41;95913.63;;;14.62;100.00
2397;BME280;1209;48.410;9.054;2023-05-10T08:46:12;95920.06;;;14.79;100.00
2397;BME280;1209;48.410;9.054;2023-05-10T08:48:40;95926.63;;;14.50;100.00
2397;BME280;1209;48.410;9.054;2023-05-10T08:51:07;95929.44;;;14.55;100.00
2397;BME280;1209;48.410;9.054;2023-05-10T08:53:36;95925.19;;;14.54;100.00
2397;BME280;1209;48.410;9.054;2023-05-10T08:56:02;95933.03;;;14.61;100.00
2397;BME280;1209;48.410;9.054;2023-05-10T08:58:27;95928.97;;;14.78;100.00
2397;BME280;1209;48.410;9.054;2023-05-10T09:00:53;95932.63;;;14.70;100.00
2397;BME280;1209;48.410;9.054;2023-05-10T09:03:18;95941.53;;;14.63;100.00
2397;BME280;1209;48.410;9.054;2023-05-10T09:05:43;95940.31;;;14.65;100.00
2397;BME280;1209;48.410;9.054;2023-05-10T09:08:10;95937.78;;;14.90;100.00
2397;BME280;1209;48.410;9.054;2023-05-10T09:10:38;95941.19;;;14.97;100.00
2397;BME280;1209;48.410;9.054;2023-05-10T09:13:04;95938.91;;;15.14;100.00
2397;BME280;1209;48.410;9.054;2023-05-10T09:15:30;95945.91;;;15.27;100.00
2397;BME280;1209;48.410;9.054;2023-05-10T09:17:56;95937.09;;;15.15;100.00
2397;BME280;1209;48.410;9.054;2023-05-10T09:20:23;95938.88;;;15.21;100.00
2397;BME280;1209;48.410;9.054;2023-05-10T09:22:48;95938.81;;;15.27;100.00
2397;BME280;1209;48.410;9.054;2023-05-10T09:25:15;95935.88;;;15.10;100.00
2397;BME280;1209;48.410;9.054;2023-05-10T09:27:44;95938.16;;;15.00;100.00
2397;BME280;1209;48.410;9.054;2023-05-10T09:30:14;95938.47;;;14.79;100.00
2397;BME280;1209;48.410;9.054;2023-05-10T09:32:42;95942.69;;;14.80;100.00
2397;BME280;1209;48.410;9.054;2023-05-10T09:35:09;95944.66;;;14.91;100.00
2397;BME280;1209;48.410;9.054;2023-05-10T09:37:35;95946.16;;;14.74;100.00
2397;BME280;1209;48.410;9.054;2023-05-10T09:40:04;95942.53;;;14.62;100.00
2397;BME280;1209;48.410;9.054;2023-05-10T09:42:29;95946.84;;;14.49;100.00
2397;BME280;1209;48.410;9.054;2023-05-10T09:45:00;95954.31;;;14.39;100.00
2397;BME280;1209;48.410;9.054;2023-05-10T09:47:26;95951.69;;;14.39;100.00
2397;BME280;1209;48.410;9.054;2023-05-10T09:49:52;95958.56;;;14.40;100.00
2397;BME280;1209;48.410;9.054;2023-05-10T09:52:18;95957.53;;;14.41;100.00
2397;BME280;1209;48.410;9.054;2023-05-10T09:54:53;95954.91;;;14.41;100.00
2397;BME280;1209;48.410;9.054;2023-05-10T09:57:24;95956.13;;;14.39;100.00
2397;BME280;1209;48.410;9.054;2023-05-10T09:59:50;95959.78;;;14.31;100.00
2397;BME280;1209;48.410;9.054;2023-05-10T10:02:16;95952.06;;;14.56;100.00
2397;BME280;1209;48.410;9.054;2023-05-10T10:04:42;95960.13;;;14.61;100.00
2397;BME280;1209;48.410;9.054;2023-05-10T10:07:08;95959.47;;;14.86;100.00
2397;BME280;1209;48.410;9.054;2023-05-10T10:09:34;95960.47;;;14.85;100.00
2397;BME280;1209;48.410;9.054;2023-05-10T10:12:01;95955.97;;;14.98;100.00
2397;BME280;1209;48.410;9.054;2023-05-10T10:14:28;95956.50;;;15.14;100.00
2397;BME280;1209;48.410;9.054;2023-05-10T10:16:54;95952.19;;;15.64;100.00
2397;BME280;1209;48.410;9.054;2023-05-10T10:19:19;95950.09;;;15.72;100.00
2397;BME280;1209;48.410;9.054;2023-05-10T10:21:49;95957.41;;;15.95;100.00
2397;BME280;1209;48.410;9.054;2023-05-10T10:24:14;95953.53;;;15.98;100.00
2397;BME280;1209;48.410;9.054;2023-05-10T10:26:40;95947.59;;;16.02;100.00
2397;BME280;1209;48.410;9.054;2023-05-10T10:29:36;95943.75;;;16.05;100.00
2397;BME280;1209;48.410;9.054;2023-05-10T10:32:37;95946.84;;;16.20;100.00
2397;BME280;1209;48.410;9.054;2023-05-10T10:35:03;95938.69;;;16.03;100.00
2397;BME280;1209;48.410;9.054;2023-05-10T10:37:45;95944.88;;;15.91;100.00
2397;BME280;1209;48.410;9.054;2023-05-10T10:40:31;95949.00;;;16.05;100.00
2397;BME280;1209;48.410;9.054;2023-05-10T10:42:57;95944.53;;;16.05;100.00
2397;BME280;1209;48.410;9.054;2023-05-10T10:45:24;95943.06;;;15.91;100.00
2397;BME280;1209;48.410;9.054;2023-05-10T10:48:22;95946.44;;;16.23;100.00
2397;BME280;1209;48.410;9.054;2023-05-10T10:50:56;95944.47;;;16.37;100.00
2397;BME280;1209;48.410;9.054;2023-05-10T10:53:21;95950.91;;;16.41;100.00
2397;BME280;1209;48.410;9.054;2023-05-10T10:55:47;95946.91;;;16.57;100.00
2397;BME280;1209;48.410;9.054;2023-05-10T10:58:29;95953.38;;;16.54;100.00
2397;BME280;1209;48.410;9.054;2023-05-10T11:01:11;95944.38;;;16.68;100.00
2397;BME280;1209;48.410;9.054;2023-05-10T11:03:37;95945.16;;;16.87;100.00
2397;BME280;1209;48.410;9.054;2023-05-10T11:06:02;95944.75;;;16.47;100.00
2397;BME280;1209;48.410;9.054;2023-05-10T11:08:29;95948.63;;;16.45;100.00
2397;BME280;1209;48.410;9.054;2023-05-10T11:13:31;95948.13;;;16.36;100.00
2397;BME280;1209;48.410;9.054;2023-05-10T11:15:57;95949.88;;;16.42;100.00
2397;BME280;1209;48.410;9.054;2023-05-10T11:18:28;95974.06;;;16.14;100.00
2397;BME280;1209;48.410;9.054;2023-05-10T11:21:01;95977.03;;;15.36;100.00
2397;BME280;1209;48.410;9.054;2023-05-10T11:26:09;95987.81;;;14.64;100.00
2397;BME280;1209;48.410;9.054;2023-05-10T11:28:40;95994.72;;;14.58;100.00
2397;BME280;1209;48.410;9.054;2023-05-10T11:31:06;95986.03;;;14.38;100.00
2397;BME280;1209;48.410;9.054;2023-05-10T11:33:45;95990.50;;;14.51;100.00
2397;BME280;1209;48.410;9.054;2023-05-10T11:36:16;95992.09;;;14.58;100.00
2397;BME280;1209;48.410;9.054;2023-05-10T11:38:42;96003.81;;;14.69;100.00
2397;BME280;1209;48.410;9.054;2023-05-10T11:41:10;96000.06;;;14.96;100.00
2397;BME280;1209;48.410;9.054;2023-05-10T11:43:37;96010.94;;;15.06;100.00
2397;BME280;1209;48.410;9.054;2023-05-10T11:46:05;96017.84;;;15.01;100.00
2397;BME280;1209;48.410;9.054;2023-05-10T11:48:31;96016.88;;;14.95;100.00
2397;BME280;1209;48.410;9.054;2023-05-10T11:50:56;96015.84;;;14.96;100.00
2397;BME280;1209;48.410;9.054;2023-05-10T11:53:23;96009.31;;;15.19;100.00
2397;BME280;1209;48.410;9.054;2023-05-10T11:55:48;96021.53;;;15.38;100.00
2397;BME280;1209;48.410;9.054;2023-05-10T11:58:13;96016.97;;;15.20;100.00
2397;BME280;1209;48.410;9.054;2023-05-10T12:00:39;96024.75;;;14.95;100.00
2397;BME280;1209;48.410;9.054;2023-05-10T12:03:05;96024.59;;;14.84;100.00
2397;BME280;1209;48.410;9.054;2023-05-10T12:05:32;96022.53;;;14.92;100.00
2397;BME280;1209;48.410;9.054;2023-05-10T12:08:14;96028.75;;;15.04;100.00
2397;BME280;1209;48.410;9.054;2023-05-10T12:10:40;96036.28;;;14.94;100.00
2397;BME280;1209;48.410;9.054;2023-05-10T12:13:10;96031.88;;;14.82;100.00
2397;BME280;1209;48.410;9.054;2023-05-10T12:15:36;96028.06;;;14.71;100.00
2397;BME280;1209;48.410;9.054;2023-05-10T12:18:01;96019.13;;;14.85;100.00
2397;BME280;1209;48.410;9.054;2023-05-10T12:20:27;96018.94;;;14.80;100.00
2397;BME280;1209;48.410;9.054;2023-05-10T12:22:57;96026.81;;;14.80;100.00
2397;BME280;1209;48.410;9.054;2023-05-10T12:25:32;96011.31;;;14.52;100.00
2397;BME280;1209;48.410;9.054;2023-05-10T12:27:59;96012.28;;;14.64;100.00
2397;BME280;1209;48.410;9.054;2023-05-10T12:30:28;96010.09;;;14.48;100.00
2397;BME280;1209;48.410;9.054;2023-05-10T12:33:06;96014.56;;;14.47;100.00
2397;BME280;1209;48.410;9.054;2023-05-10T12:35:32;96012.31;;;14.58;100.00
2397;BME280;1209;48.410;9.054;2023-05-10T12:37:58;96016.75;;;14.70;100.00
2397;BME280;1209;48.410;9.054;2023-05-10T12:40:23;96009.06;;;14.56;100.00
2397;BME280;1209;48.410;9.054;2023-05-10T12:42:49;96014.31;;;14.62;100.00
2397;BME280;1209;48.410;9.054;2023-05-10T12:45:14;96011.25;;;14.85;100.00
2397;BME280;1209;48.410;9.054;2023-05-10T12:47:40;96012.59;;;15.01;100.00
2397;BME280;1209;48.410;9.054;2023-05-10T12:50:05;96019.63;;;15.20;100.00
2397;BME280;1209;48.410;9.054;2023-05-10T12:52:31;96013.75;;;15.11;100.00
2397;BME280;1209;48.410;9.054;2023-05-10T12:54:58;96004.47;;;15.09;100.00
2397;BME280;1209;48.410;9.054;2023-05-10T12:57:23;96018.81;;;15.20;100.00
2397;BME280;1209;48.410;9.054;2023-05-10T12:59:49;96020.94;;;15.36;100.00
2397;BME280;1209;48.410;9.054;2023-05-10T13:02:15;96010.09;;;15.64;100.00
2397;BME280;1209;48.410;9.054;2023-05-10T13:04:40;96014.13;;;15.66;100.00
2397;BME280;1209;48.410;9.054;2023-05-10T13:07:07;96003.63;;;15.60;100.00
2397;BME280;1209;48.410;9.054;2023-05-10T13:09:32;96013.34;;;15.59;100.00
2397;BME280;1209;48.410;9.054;2023-05-10T13:11:57;96005.94;;;15.43;100.00
2397;BME280;1209;48.410;9.054;2023-05-10T13:14:23;96006.91;;;15.49;100.00
2397;BME280;1209;48.410;9.054;2023-05-10T13:16:48;95996.59;;;15.47;100.00
2397;BME280;1209;48.410;9.054;2023-05-10T13:19:14;95997.53;;;15.66;100.00
2397;BME280;1209;48.410;9.054;2023-05-10T13:21:39;95996.63;;;15.79;100.00
2397;BME280;1209;48.410;9.054;2023-05-10T13:24:06;96001.16;;;15.96;100.00
2397;BME280;1209;48.410;9.054;2023-05-10T13:26:32;95992.69;;;16.19;100.00
2397;BME280;1209;48.410;9.054;2023-05-10T13:28:57;95991.88;;;16.19;100.00
2397;BME280;1209;48.410;9.054;2023-05-10T13:31:22;95992.09;;;16.17;100.00